Time;durP1;ratioP1;P1;durP2;ratioP2;P2;SDS_P1;SDS_P2;PMS_P1;PMS_P2;Temp;Humidity;BMP_temperature;BMP_pressure;BME280_temperature;BME280_humidity;BME280_pressure;Samples;Min_cycle;Max_cycle;Signal;HPM_P1;HPM_P2
2023/07/12 00:00:38;;;;;;;10.97;9.80;;;;;;;24.07;60.16;97118.16;5025892;28;20199;-83
2023/07/12 00:04:01;;;;;;;11.60;10.40;;;;;;;24.07;60.36;97126.13;5026601;28;20205;-84
2023/07/12 00:07:26;;;;;;;11.17;9.43;;;;;;;24.44;58.98;97127.78;5012430;28;20214;-83
2023/07/12 00:10:49;;;;;;;10.07;8.80;;;;;;;24.72;58.41;97121.34;5031558;28;20314;-83
2023/07/12 00:14:14;;;;;;;11.87;9.90;;;;;;;24.89;57.91;97121.31;5049403;28;20286;-83
2023/07/12 00:17:35;;;;;;;10.73;9.17;;;;;;;24.79;58.55;97125.09;5048305;28;20204;-82
2023/07/12 00:20:57;;;;;;;10.83;8.97;;;;;;;24.64;58.58;97108.06;5048241;28;20202;-84
2023/07/12 00:24:25;;;;;;;9.67;8.63;;;;;;;24.66;59.68;97127.28;5048080;28;20202;-81
2023/07/12 00:27:46;;;;;;;12.00;9.87;;;;;;;24.42;60.30;97121.81;5047500;28;20215;-83
2023/07/12 00:31:09;;;;;;;9.97;8.97;;;;;;;23.98;60.57;97121.72;5031404;28;20822;-84
2023/07/12 00:34:31;;;;;;;11.33;9.33;;;;;;;24.11;60.46;97126.66;5031957;28;20229;-85
2023/07/12 00:37:57;;;;;;;9.90;8.90;;;;;;;24.03;61.03;97132.69;5064798;28;20207;-86
2023/07/12 00:41:13;;;;;;;10.77;9.53;;;;;;;23.94;60.80;97117.72;5033481;28;20534;-84
2023/07/12 00:44:44;;;;;;;12.53;9.80;;;;;;;24.06;60.39;97118.34;5039456;28;20199;-83
2023/07/12 00:48:06;;;;;;;9.93;8.67;;;;;;;24.29;60.02;97113.41;5034262;28;20675;-84
2023/07/12 00:51:31;;;;;;;11.93;9.70;;;;;;;24.35;59.66;97112.78;5034456;28;20203;-85
2023/07/12 00:54:47;;;;;;;10.40;9.03;;;;;;;23.97;59.90;97108.59;5029322;28;20763;-85
2023/07/12 00:58:11;;;;;;;9.97;8.33;;;;;;;24.03;60.20;97103.59;5031686;28;20203;-84
2023/07/12 01:01:49;;;;;;;11.37;9.77;;;;;;;23.90;60.72;97104.94;5048071;28;20310;-84
2023/07/12 01:05:17;;;;;;;14.73;9.37;;;;;;;23.82;61.17;97108.28;5034942;28;20715;-84
2023/07/12 01:08:44;;;;;;;11.77;9.17;;;;;;;23.62;61.21;97100.69;5024822;28;20603;-85
2023/07/12 01:12:13;;;;;;;12.77;9.47;;;;;;;23.65;60.38;97087.97;5026619;28;20203;-85
2023/07/12 01:15:43;;;;;;;12.53;8.63;;;;;;;23.97;59.47;97096.22;5012249;28;20203;-87
2023/07/12 01:19:38;;;;;;;9.67;8.37;;;;;;;24.09;58.95;97096.88;5049759;28;20273;-86
2023/07/12 01:23:51;;;;;;;10.27;8.60;;;;;;;23.98;59.50;97068.78;5004303;28;20215;-85
2023/07/12 01:27:17;;;;;;;9.57;8.53;;;;;;;24.16;59.39;97077.56;5007077;28;20209;-83
2023/07/12 01:30:40;;;;;;;10.77;9.40;;;;;;;24.01;59.87;97084.34;4975562;28;20609;-86
2023/07/12 01:34:03;;;;;;;10.93;8.30;;;;;;;24.00;59.57;97084.50;4990584;28;20228;-83
2023/07/12 01:37:28;;;;;;;9.20;8.27;;;;;;;24.01;59.59;97087.00;4972604;28;20263;-82
2023/07/12 01:40:50;;;;;;;11.70;7.93;;;;;;;23.87;60.21;97071.66;5002026;28;20209;-84
2023/07/12 01:44:11;;;;;;;10.17;8.43;;;;;;;23.68;59.95;97071.78;4965909;28;20224;-86
2023/07/12 01:47:34;;;;;;;11.63;8.07;;;;;;;23.82;59.53;97073.91;4987532;28;20344;-84
2023/07/12 01:50:56;;;;;;;12.27;7.17;;;;;;;23.88;59.92;97078.63;4968158;28;20275;-83
2023/07/12 01:54:18;;;;;;;9.83;7.60;;;;;;;23.97;59.96;97085.63;5018690;28;20225;-83
2023/07/12 01:57:40;;;;;;;9.70;7.97;;;;;;;23.98;60.82;97089.97;5032013;28;20283;-84
2023/07/12 02:01:04;;;;;;;11.33;9.67;;;;;;;23.96;61.29;97096.38;5000249;28;20214;-85
2023/07/12 02:04:28;;;;;;;11.33;10.10;;;;;;;23.83;61.29;97069.47;5013325;28;20249;-83
2023/07/12 02:07:56;;;;;;;13.57;9.50;;;;;;;24.14;61.46;97086.66;5029133;28;20264;-81
2023/07/12 02:11:18;;;;;;;13.77;9.43;;;;;;;24.08;61.29;97103.97;5030244;28;20220;-83
2023/07/12 02:14:48;;;;;;;13.03;9.50;;;;;;;23.76;62.29;97100.97;5030160;28;20219;-82
2023/07/12 02:18:11;;;;;;;13.20;9.50;;;;;;;23.65;63.27;97108.28;5031813;28;20203;-85
2023/07/12 02:22:04;;;;;;;11.47;9.17;;;;;;;23.53;63.39;97099.75;5022773;28;20286;-84
2023/07/12 02:25:33;;;;;;;13.67;9.73;;;;;;;23.00;64.17;97085.53;5011541;28;20289;-83
2023/07/12 02:28:57;;;;;;;13.13;10.00;;;;;;;23.31;64.20;97111.50;5046442;28;20719;-83
2023/07/12 02:32:18;;;;;;;10.83;9.23;;;;;;;23.72;62.92;97114.66;5031730;28;20601;-85
2023/07/12 02:35:39;;;;;;;13.20;10.27;;;;;;;23.54;62.88;97122.53;4997715;28;20254;-85
2023/07/12 02:39:02;;;;;;;12.90;9.93;;;;;;;23.44;63.66;97113.84;5043272;28;20208;-83
2023/07/12 02:42:29;;;;;;;11.73;8.80;;;;;;;23.17;63.76;97119.09;5031754;28;20198;-85
2023/07/12 02:45:50;;;;;;;11.77;9.47;;;;;;;22.85;64.83;97114.22;5064030;28;20253;-85
2023/07/12 02:49:15;;;;;;;14.30;10.53;;;;;;;23.07;64.57;97126.22;5052660;28;20238;-85
2023/07/12 02:52:40;;;;;;;13.30;10.13;;;;;;;23.17;64.33;97112.00;5019271;28;20202;-86
2023/07/12 02:56:03;;;;;;;11.10;8.90;;;;;;;23.18;64.63;97104.91;5032111;28;20217;-83
2023/07/12 02:59:25;;;;;;;12.67;9.57;;;;;;;23.49;63.00;97129.25;5012888;28;20205;-84
2023/07/12 03:03:05;;;;;;;11.37;8.87;;;;;;;23.54;61.39;97132.28;5029820;28;20211;-85
2023/07/12 03:06:28;;;;;;;9.33;8.33;;;;;;;23.13;62.88;97123.84;5012468;28;20294;-82
2023/07/12 03:09:51;;;;;;;9.53;8.10;;;;;;;23.15;62.58;97145.66;5045241;28;20328;-83
2023/07/12 03:13:14;;;;;;;11.90;8.03;;;;;;;23.49;61.82;97145.97;5014864;28;20291;-84
2023/07/12 03:16:39;;;;;;;12.63;8.23;;;;;;;23.76;60.64;97155.69;5031285;28;20267;-84
2023/07/12 03:20:07;;;;;;;9.97;8.70;;;;;;;24.07;60.80;97162.34;5051543;28;20214;-85
2023/07/12 03:23:32;;;;;;;14.10;9.07;;;;;;;24.22;60.60;97169.59;5049030;28;20262;-86
2023/07/12 03:26:55;;;;;;;14.93;8.40;;;;;;;24.29;60.63;97171.66;5066840;28;20196;-84
2023/07/12 03:30:16;;;;;;;13.13;9.60;;;;;;;24.25;61.61;97181.72;5044761;28;20238;-85
2023/07/12 03:33:40;;;;;;;13.30;10.10;;;;;;;23.93;62.24;97171.59;5043986;28;20206;-85
2023/07/12 03:37:02;;;;;;;12.53;9.70;;;;;;;23.93;62.73;97181.34;5071974;28;20221;-84
2023/07/12 03:40:25;;;;;;;16.93;10.43;;;;;;;23.80;63.31;97191.47;5054047;28;20577;-83
2023/07/12 03:43:47;;;;;;;18.10;10.40;;;;;;;23.58;63.79;97192.66;5071110;28;20191;-82
2023/07/12 03:47:09;;;;;;;12.57;9.80;;;;;;;23.75;63.28;97209.56;5040635;28;20198;-82
2023/07/12 03:50:32;;;;;;;13.23;9.27;;;;;;;23.83;63.32;97213.16;5015358;28;20205;-82
2023/07/12 03:53:57;;;;;;;13.53;9.30;;;;;;;24.30;62.07;97213.03;5052062;28;20200;-85
2023/07/12 03:57:20;;;;;;;13.60;10.10;;;;;;;24.59;60.45;97222.41;5044220;28;20260;-84
2023/07/12 04:00:42;;;;;;;11.83;9.53;;;;;;;24.59;61.00;97219.75;5041008;28;20259;-82
2023/07/12 04:04:03;;;;;;;11.90;9.47;;;;;;;24.43;61.32;97214.31;5031042;28;20696;-83
2023/07/12 04:07:08;;;;;;;11.80;8.70;;;;;;;23.98;62.62;97211.69;5033593;28;20376;-83
2023/07/12 04:10:30;;;;;;;13.10;9.53;;;;;;;24.28;61.45;97212.34;4985920;28;20249;-85
2023/07/12 04:13:53;;;;;;;11.77;8.70;;;;;;;24.57;60.20;97210.28;5046806;28;20198;-83
2023/07/12 04:17:16;;;;;;;12.13;8.27;;;;;;;25.08;57.55;97175.94;5034198;28;20208;-83
2023/07/12 04:20:43;;;;;;;11.80;7.73;;;;;;;25.43;56.35;97210.31;5046047;28;20245;-84
2023/07/12 04:24:07;;;;;;;13.03;9.17;;;;;;;26.21;55.28;97229.56;5059806;28;20787;-83
2023/07/12 04:27:30;;;;;;;10.33;8.30;;;;;;;26.75;54.18;97218.38;5036503;28;20220;-84
2023/07/12 04:30:51;;;;;;;14.70;7.80;;;;;;;26.92;53.74;97230.66;5068581;28;20194;-85
2023/07/12 04:33:36;;;;;;;11.70;7.73;;;;;;;26.90;54.57;97230.00;5050646;28;20205;-85
2023/07/12 04:36:08;;;;;;;14.23;8.30;;;;;;;27.10;54.39;97228.66;5052014;28;20689;-83
2023/07/12 04:38:41;;;;;;;10.37;7.00;;;;;;;27.12;53.45;97233.84;5049697;28;20274;-84
2023/07/12 04:41:11;;;;;;;11.07;7.27;;;;;;;27.06;53.86;97200.75;5036350;28;20198;-83
2023/07/12 04:43:50;;;;;;;12.37;7.87;;;;;;;27.42;52.47;97206.53;5019309;28;20201;-82
2023/07/12 04:46:18;;;;;;;11.33;8.23;;;;;;;27.06;53.04;97203.41;5035230;28;20201;-83
2023/07/12 04:48:48;;;;;;;18.60;10.43;;;;;;;26.98;53.60;97224.69;5068769;28;20233;-82
2023/07/12 04:51:21;;;;;;;17.53;10.57;;;;;;;27.33;53.47;97229.63;5051683;28;20197;-83
2023/07/12 04:53:53;;;;;;;15.67;10.00;;;;;;;27.61;52.52;97232.78;5051235;28;20711;-82
2023/07/12 04:57:16;;;;;;;16.60;9.10;;;;;;;27.92;51.99;97235.47;5048853;28;20669;-82
2023/07/12 05:00:38;;;;;;;14.47;9.03;;;;;;;28.62;50.05;97231.81;5050087;28;20205;-83
2023/07/12 05:04:01;;;;;;;11.20;8.53;;;;;;;28.88;50.34;97244.78;5067418;28;20513;-83
2023/07/12 05:07:28;;;;;;;14.60;9.40;;;;;;;28.80;49.92;97244.84;5035983;28;20201;-84
2023/07/12 05:10:52;;;;;;;12.20;10.10;;;;;;;28.80;50.28;97212.84;5066822;28;20208;-83
2023/07/12 05:14:16;;;;;;;16.30;10.87;;;;;;;29.22;49.25;97239.03;5066650;28;20313;-82
2023/07/12 05:17:39;;;;;;;11.83;9.37;;;;;;;29.01;50.33;97233.50;5053083;28;20205;-84
2023/07/12 05:21:02;;;;;;;14.27;11.23;;;;;;;29.11;50.92;97236.75;5054686;28;20189;-85
2023/07/12 05:24:31;;;;;;;16.80;11.20;;;;;;;29.26;51.05;97237.66;5067598;28;20203;-86
2023/07/12 05:27:54;;;;;;;14.50;11.13;;;;;;;29.45;50.71;97239.81;5032785;28;20230;-84
2023/07/12 05:31:19;;;;;;;15.00;11.40;;;;;;;29.61;50.92;97235.09;5066181;28;20704;-87
2023/07/12 05:34:50;;;;;;;17.90;11.23;;;;;;;29.60;49.77;97252.13;5068802;28;20193;-87
2023/07/12 05:38:13;;;;;;;14.57;10.87;;;;;;;29.60;50.38;97252.13;5067823;28;20212;-86
2023/07/12 05:41:46;;;;;;;15.13;11.17;;;;;;;29.24;50.89;97247.66;5050651;28;20197;-85
2023/07/12 05:45:08;;;;;;;15.57;11.67;;;;;;;29.47;49.73;97243.13;5034360;28;20220;-87
2023/07/12 05:48:16;;;;;;;16.60;11.50;;;;;;;29.58;49.13;97234.63;5046039;28;20233;-85
2023/07/12 05:51:41;;;;;;;13.63;10.47;;;;;;;29.88;47.74;97224.81;5059038;28;20192;-84
2023/07/12 05:55:31;;;;;;;13.20;10.70;;;;;;;29.64;48.61;97207.19;5069455;28;20881;-83
2023/07/12 05:58:52;;;;;;;12.50;10.27;;;;;;;29.71;48.59;97232.16;5018592;28;20224;-80
2023/07/12 06:02:15;;;;;;;15.90;10.47;;;;;;;29.96;48.14;97225.56;5033075;28;20199;-82
2023/07/12 06:06:02;;;;;;;19.13;11.60;;;;;;;30.41;47.42;97241.34;5037276;28;20205;-82
2023/07/12 06:09:28;;;;;;;11.33;9.17;;;;;;;29.98;47.87;97228.03;5066584;28;20270;-85
2023/07/12 06:17:11;;;;;;;11.77;8.90;;;;;;;30.27;46.21;97249.38;4975334;28;20211;-84
2023/07/12 06:20:35;;;;;;;15.93;9.60;;;;;;;30.72;44.33;97251.75;4971706;28;20191;-85
2023/07/12 06:28:18;;;;;;;13.20;9.07;;;;;;;31.24;45.99;97251.44;4994926;28;20206;-82
2023/07/12 06:32:53;;;;;;;20.97;9.10;;;;;;;31.22;45.53;97266.84;5011164;28;20689;-83
2023/07/12 06:36:24;;;;;;;13.73;8.13;;;;;;;31.57;44.69;97252.53;4988158;28;20254;-84
2023/07/12 06:39:57;;;;;;;13.25;9.15;;;;;;;31.54;42.85;97244.03;4987746;28;20206;-83
2023/07/12 06:44:10;;;;;;;12.52;8.57;;;;;;;31.45;41.79;97256.75;4944796;29;20300;-85
2023/07/12 06:47:44;;;;;;;17.02;9.93;;;;;;;31.61;42.58;97256.47;4931006;29;20216;-85
2023/07/12 06:51:09;;;;;;;15.23;8.80;;;;;;;31.70;41.90;97254.44;4930184;29;20704;-83
2023/07/12 06:54:36;;;;;;;11.93;8.23;;;;;;;31.80;41.04;97255.75;4947508;29;20201;-87
2023/07/12 06:58:04;;;;;;;11.07;8.68;;;;;;;31.90;41.89;97256.22;4933275;29;20287;-83
2023/07/12 07:02:39;;;;;;;9.63;7.13;;;;;;;31.95;42.15;97259.19;4947631;29;20255;-82
2023/07/12 07:10:31;;;;;;;11.55;8.27;;;;;;;31.96;41.33;97257.34;4932160;29;20232;-83
2023/07/12 07:14:13;;;;;;;12.10;7.60;;;;;;;32.08;40.11;97261.94;4934072;29;20633;-81
2023/07/12 07:17:34;;;;;;;11.60;8.23;;;;;;;32.25;39.93;97258.91;4933876;29;20292;-87
2023/07/12 07:21:13;;;;;;;12.40;7.68;;;;;;;32.33;39.33;97256.06;4949074;29;20221;-86
2023/07/12 07:25:11;;;;;;;8.93;7.63;;;;;;;32.31;39.42;97260.78;4977567;28;20214;-85
2023/07/12 07:28:56;;;;;;;10.38;8.30;;;;;;;32.49;39.40;97263.75;4981607;28;20338;-85
2023/07/12 07:32:24;;;;;;;10.07;7.43;;;;;;;32.39;38.85;97257.94;4990034;28;20203;-85
2023/07/12 07:35:49;;;;;;;13.00;8.63;;;;;;;32.50;39.69;97257.38;4977631;28;20275;-84
2023/07/12 07:39:20;;;;;;;10.52;7.32;;;;;;;32.49;40.10;97245.00;4991819;28;20198;-83
2023/07/12 07:42:55;;;;;;;13.10;7.93;;;;;;;32.77;39.38;97248.34;5045714;28;20288;-82
2023/07/12 07:46:36;;;;;;;12.73;7.38;;;;;;;32.53;39.88;97230.16;5032659;28;20630;-86
2023/07/12 07:50:31;;;;;;;17.90;9.48;;;;;;;32.85;39.43;97242.81;4983031;28;20290;-84
2023/07/12 07:53:59;;;;;;;11.50;7.68;;;;;;;32.80;39.11;97247.94;4987928;28;20254;-85
2023/07/12 07:57:30;;;;;;;10.13;7.43;;;;;;;32.86;39.94;97249.81;4972793;28;20230;-84
2023/07/12 08:01:11;;;;;;;16.27;8.13;;;;;;;32.86;38.95;97228.34;5008486;28;20246;-85
2023/07/12 08:05:07;;;;;;;9.57;7.22;;;;;;;33.00;38.79;97248.84;4965594;28;20215;-85
2023/07/12 08:09:15;;;;;;;12.93;8.02;;;;;;;33.06;38.81;97253.38;5000633;28;20306;-85
2023/07/12 08:12:43;;;;;;;9.00;7.60;;;;;;;32.67;38.52;97200.47;4986153;28;20238;-82
2023/07/12 08:16:07;;;;;;;10.20;7.40;;;;;;;33.02;38.62;97257.50;4969770;28;20688;-84
2023/07/12 08:19:38;;;;;;;12.80;8.00;;;;;;;33.29;38.24;97256.50;4954076;28;20346;-83
2023/07/12 08:23:53;;;;;;;12.05;7.50;;;;;;;33.45;38.09;97258.75;4971761;28;20294;-86
2023/07/12 08:27:21;;;;;;;12.35;7.28;;;;;;;33.55;37.64;97269.94;4993048;28;20298;-83
2023/07/12 08:30:53;;;;;;;14.30;7.68;;;;;;;33.18;38.04;97256.28;4988906;28;20293;-82
2023/07/12 08:34:18;;;;;;;10.18;7.90;;;;;;;33.26;37.93;97262.25;4988472;28;20632;-84
2023/07/12 08:37:43;;;;;;;13.15;7.60;;;;;;;33.25;37.21;97241.81;4989017;28;20191;-85
2023/07/12 08:41:11;;;;;;;9.40;8.00;;;;;;;33.04;38.29;97252.75;5049818;28;20267;-85
2023/07/12 08:45:04;;;;;;;10.23;7.97;;;;;;;32.59;39.50;97251.63;5069153;28;20204;-85
2023/07/12 08:48:29;;;;;;;13.02;8.38;;;;;;;32.72;39.18;97234.72;5068946;28;20220;-85
2023/07/12 08:52:26;;;;;;;10.13;8.40;;;;;;;33.06;38.67;97239.97;5068323;28;20208;-83
2023/07/12 08:56:01;;;;;;;11.82;8.00;;;;;;;33.18;37.97;97219.50;5067214;28;20213;-84
2023/07/12 08:59:24;;;;;;;13.65;7.80;;;;;;;33.13;37.80;97246.16;5065623;28;20197;-86
2023/07/12 09:07:29;;;;;;;18.83;11.45;;;;;;;33.41;37.58;97236.03;5067509;28;20655;-85
2023/07/12 09:11:14;;;;;;;11.02;7.40;;;;;;;33.57;36.60;97257.09;5032998;28;20225;-85
2023/07/12 09:14:40;;;;;;;13.45;8.45;;;;;;;33.27;37.48;97239.75;5049231;28;20277;-81
2023/07/12 09:22:10;;;;;;;9.80;8.38;;;;;;;33.53;36.38;97261.25;5067957;28;20205;-84
2023/07/12 09:26:24;;;;;;;9.20;7.75;;;;;;;33.67;36.62;97238.69;5068201;28;20271;-85
2023/07/12 09:30:24;;;;;;;9.27;7.57;;;;;;;33.01;37.90;97261.25;5043581;28;20229;-86
2023/07/12 09:34:27;;;;;;;8.93;7.75;;;;;;;33.20;38.06;97259.59;5027870;28;20229;-86
2023/07/12 09:38:12;;;;;;;10.95;8.00;;;;;;;33.20;37.78;97252.34;5028775;28;20361;-87
2023/07/12 09:43:09;;;;;;;10.18;7.85;;;;;;;33.41;36.95;97252.16;5045840;28;20316;-85
2023/07/12 09:47:55;;;;;;;9.88;8.10;;;;;;;33.09;37.98;97247.63;5024166;28;20697;-85
2023/07/12 09:51:19;;;;;;;9.40;8.25;;;;;;;32.94;37.49;97230.84;5005341;28;20602;-83
2023/07/12 09:54:47;;;;;;;11.68;7.93;;;;;;;32.92;38.06;97242.78;5031442;28;20205;-84
2023/07/12 09:58:35;;;;;;;11.98;8.35;;;;;;;32.63;38.18;97198.38;5010029;28;20662;-85
2023/07/12 10:02:06;;;;;;;13.13;9.23;;;;;;;33.44;37.11;97246.38;5010748;28;20202;-86
2023/07/12 10:05:48;;;;;;;14.13;8.93;;;;;;;33.61;36.08;97222.63;4999843;28;20211;-85
2023/07/12 10:09:16;;;;;;;13.63;8.93;;;;;;;34.13;35.62;97229.69;5004446;28;20242;-83
2023/07/12 10:12:50;;;;;;;15.43;9.20;;;;;;;34.40;35.11;97226.69;4978444;28;20272;-85
2023/07/12 10:16:22;;;;;;;10.13;8.30;;;;;;;34.65;33.87;97229.47;4992346;28;20198;-84
2023/07/12 10:19:23;;;;;;;13.05;8.48;;;;;;;34.50;34.01;97209.31;4992679;28;20292;-83
2023/07/12 10:22:57;;;;;;;11.15;8.10;;;;;;;34.86;34.16;97228.31;4996228;28;20209;-85
2023/07/12 10:26:52;;;;;;;11.77;8.52;;;;;;;34.61;34.71;97177.13;5023458;28;20237;-85
2023/07/12 10:30:30;;;;;;;13.15;8.93;;;;;;;35.06;33.49;97216.38;5023595;28;20234;-82
2023/07/12 10:34:22;;;;;;;10.15;8.23;;;;;;;34.64;34.21;97189.34;5021625;28;20337;-83
2023/07/12 10:38:29;;;;;;;11.43;8.35;;;;;;;34.49;33.93;97205.78;4984155;28;20802;-85
2023/07/12 10:50:48;;;;;;;10.88;8.90;;;;;;;33.89;34.33;97147.88;4954606;28;20708;-85
2023/07/12 10:55:02;;;;;;;14.98;8.65;;;;;;;34.21;34.41;97199.91;4966615;28;20479;-85
2023/07/12 10:59:37;;;;;;;11.70;8.15;;;;;;;34.22;34.64;97197.00;4921470;29;20252;-83
2023/07/12 11:03:34;;;;;;;11.45;8.48;;;;;;;34.51;34.24;97216.31;4950370;28;20211;-84
2023/07/12 11:07:14;;;;;;;11.15;8.93;;;;;;;34.53;33.66;97185.47;4911686;29;20214;-84
2023/07/12 11:11:15;;;;;;;14.02;9.65;;;;;;;34.41;34.57;97198.75;4936909;29;20233;-84
2023/07/12 11:14:43;;;;;;;10.65;8.50;;;;;;;34.55;33.58;97201.38;4935554;29;20209;-84
2023/07/12 11:18:36;;;;;;;10.75;9.07;;;;;;;34.56;33.83;97203.84;4944950;29;20247;-85
2023/07/12 11:23:04;;;;;;;11.77;9.20;;;;;;;34.75;34.19;97191.31;4881301;29;20211;-87
2023/07/12 11:27:18;;;;;;;12.50;9.00;;;;;;;34.80;33.52;97164.56;4942620;29;20685;-85
2023/07/12 11:45:07;;;;;;;15.18;9.85;;;;;;;35.14;32.71;97170.31;4939573;28;20338;-85
2023/07/12 11:54:54;;;;;;;11.10;8.82;;;;;;;35.34;32.63;97174.69;4941257;28;20311;-87
2023/07/12 11:59:29;;;;;;;13.68;10.00;;;;;;;35.17;33.25;97164.50;4953047;29;20197;-86
2023/07/12 12:03:46;;;;;;;12.70;9.75;;;;;;;35.26;32.32;97166.91;5003299;28;20198;-88
2023/07/12 12:08:07;;;;;;;12.63;9.82;;;;;;;35.44;31.74;97164.25;4992712;28;20269;-88
2023/07/12 12:12:42;;;;;;;10.68;8.77;;;;;;;34.83;31.82;97158.78;4969546;28;20858;-87
2023/07/12 12:17:14;;;;;;;10.75;9.23;;;;;;;35.01;32.00;97156.16;4970331;28;20349;-87
2023/07/12 12:26:11;;;;;;;12.13;9.80;;;;;;;35.31;32.31;97159.81;4892338;29;20296;-86
2023/07/12 12:40:29;;;;;;;10.70;9.38;;;;;;;34.30;33.64;97166.31;4872857;29;20250;-86
2023/07/12 12:45:17;;;;;;;13.10;10.00;;;;;;;34.81;31.19;97175.13;4816693;29;20224;-84
2023/07/12 12:49:03;;;;;;;15.70;10.15;;;;;;;34.44;32.44;97151.75;4816945;29;20245;-85
2023/07/12 13:03:55;;;;;;;12.90;9.27;;;;;;;34.14;30.87;97148.00;4836111;29;20718;-85
2023/07/12 13:08:10;;;;;;;13.48;10.77;;;;;;;34.40;31.20;97146.00;4769613;30;20767;-87
2023/07/12 13:13:03;;;;;;;14.15;11.05;;;;;;;34.38;31.10;97142.69;4727454;30;20653;-87
2023/07/12 13:17:08;;;;;;;12.35;10.45;;;;;;;34.12;30.91;97126.72;4717455;30;20297;-86
2023/07/12 13:20:41;;;;;;;17.38;9.95;;;;;;;34.19;30.99;97143.63;4686702;30;20214;-86
2023/07/12 13:24:35;;;;;;;14.68;9.52;;;;;;;34.19;31.11;97137.44;4725090;30;20238;-87
2023/07/12 13:37:20;;;;;;;11.68;9.68;;;;;;;34.22;30.40;97147.75;4791218;29;20783;-86
2023/07/12 13:41:30;;;;;;;15.20;9.95;;;;;;;34.03;31.53;97113.72;4834508;29;20256;-84
2023/07/12 13:55:17;;;;;;;13.30;9.05;;;;;;;33.85;32.21;97125.16;4870495;29;20215;-88
2023/07/12 13:59:57;;;;;;;12.80;9.02;;;;;;;34.10;32.04;97133.34;4853103;29;20287;-86
2023/07/12 14:18:23;;;;;;;12.52;9.35;;;;;;;34.21;31.73;97100.41;4786281;29;20222;-87
2023/07/12 14:22:51;;;;;;;12.52;8.18;;;;;;;34.04;31.56;97107.31;4814382;29;20696;-86
2023/07/12 14:27:09;;;;;;;11.70;9.20;;;;;;;33.79;31.86;97076.81;4822558;29;20224;-87
2023/07/12 14:32:03;;;;;;;10.07;8.73;;;;;;;33.97;32.49;97087.66;4853526;29;20211;-87
2023/07/12 14:41:39;;;;;;;10.65;8.50;;;;;;;33.85;32.58;97086.69;4756838;30;20451;-86
2023/07/12 14:45:04;;;;;;;10.70;8.55;;;;;;;34.03;33.07;97087.66;4778748;29;20209;-86
2023/07/12 14:48:33;;;;;;;12.60;8.38;;;;;;;33.91;33.20;97093.91;4853578;29;20209;-84
2023/07/12 14:52:00;;;;;;;9.93;7.93;;;;;;;34.02;33.14;97090.56;4855379;29;20216;-83
2023/07/12 14:55:21;;;;;;;11.45;8.95;;;;;;;34.04;32.96;97089.34;4864148;29;20218;-81
2023/07/12 14:58:52;;;;;;;10.00;8.77;;;;;;;33.91;33.41;97073.22;4873469;29;20304;-84
2023/07/12 15:03:17;;;;;;;8.32;7.43;;;;;;;33.96;34.36;97088.72;4887915;29;20216;-84
2023/07/12 15:06:39;;;;;;;10.63;8.13;;;;;;;33.91;33.59;97080.47;4948170;29;20197;-85
2023/07/12 15:10:07;;;;;;;13.18;9.18;;;;;;;33.81;33.34;97066.66;4948449;29;20236;-82
2023/07/12 15:18:04;;;;;;;9.32;7.75;;;;;;;34.21;33.01;97073.50;4963073;28;20575;-87
2023/07/12 15:21:27;;;;;;;8.63;7.32;;;;;;;34.21;32.03;97055.47;4973399;28;20203;-82
2023/07/12 15:24:55;;;;;;;10.85;8.43;;;;;;;34.55;32.42;97094.59;5006162;28;20199;-84
2023/07/12 15:28:26;;;;;;;16.13;8.85;;;;;;;34.32;32.86;97089.75;5048541;28;20217;-87
2023/07/12 15:31:52;;;;;;;9.23;7.32;;;;;;;34.11;32.88;97091.94;5053518;28;20197;-89
2023/07/12 15:36:02;;;;;;;13.10;7.78;;;;;;;33.79;33.50;97083.03;5061500;28;20205;-85
2023/07/12 15:40:13;;;;;;;10.45;8.35;;;;;;;33.76;33.56;97082.63;5072595;28;20272;-85
2023/07/12 15:43:48;;;;;;;9.40;7.43;;;;;;;33.69;34.76;97085.34;5067615;28;20601;-85
2023/07/12 15:47:57;;;;;;;11.27;7.43;;;;;;;33.64;34.28;97085.16;5035278;28;20299;-86
2023/07/12 15:51:45;;;;;;;8.95;6.85;;;;;;;33.84;34.67;97075.13;5060782;28;20190;-87
2023/07/12 15:55:10;;;;;;;11.52;8.23;;;;;;;33.98;34.33;97078.59;4955924;28;21018;-87
2023/07/12 16:02:51;;;;;;;11.15;7.45;;;;;;;33.71;35.34;97069.00;5054220;28;20221;-84
2023/07/12 16:06:20;;;;;;;10.77;7.72;;;;;;;33.83;34.76;97078.88;5032152;28;20208;-85
2023/07/12 16:09:49;;;;;;;14.80;7.55;;;;;;;33.78;34.27;97080.56;5047062;28;20245;-85
2023/07/12 16:17:22;;;;;;;10.80;7.10;;;;;;;33.39;35.31;97071.56;5031067;28;20199;-84
2023/07/12 16:21:52;;;;;;;14.20;8.40;;;;;;;33.25;35.67;97069.13;5037133;28;20631;-84
2023/07/12 16:25:34;;;;;;;9.55;7.55;;;;;;;33.09;35.49;97065.06;5015899;28;20257;-86
2023/07/12 16:29:23;;;;;;;9.05;7.13;;;;;;;33.03;35.33;97054.34;5001637;28;20257;-85
2023/07/12 16:36:48;;;;;;;9.52;7.15;;;;;;;33.24;35.72;97054.88;5015364;28;20252;-85
2023/07/12 16:41:44;;;;;;;9.60;7.07;;;;;;;33.31;35.29;97047.63;5030489;28;20225;-82
2023/07/12 16:45:14;;;;;;;11.02;7.85;;;;;;;33.32;35.47;97056.53;5029408;28;20254;-83
2023/07/12 16:49:23;;;;;;;10.18;7.63;;;;;;;33.46;35.54;97060.81;5030205;28;20791;-85
2023/07/12 16:52:44;;;;;;;10.85;7.90;;;;;;;33.62;35.67;97061.19;5011424;28;20706;-83
2023/07/12 16:56:13;;;;;;;9.65;6.82;;;;;;;33.27;36.19;97061.69;5010116;28;20315;-84
2023/07/12 16:59:49;;;;;;;10.27;7.82;;;;;;;32.80;36.39;97028.75;5017850;28;20197;-86
2023/07/12 17:04:01;;;;;;;11.40;7.75;;;;;;;33.33;36.30;97061.69;5037006;28;20198;-84
2023/07/12 17:07:54;;;;;;;11.75;8.02;;;;;;;33.33;36.16;97063.53;5024886;28;20303;-86
2023/07/12 17:11:45;;;;;;;11.02;7.80;;;;;;;33.25;36.73;97063.78;5033131;28;20282;-86
2023/07/12 17:15:30;;;;;;;13.82;8.23;;;;;;;33.37;36.33;97059.38;5040985;28;20276;-87
2023/07/12 17:19:23;;;;;;;10.02;7.20;;;;;;;33.19;37.19;97073.50;5036198;28;20261;-86
2023/07/12 17:26:34;;;;;;;12.02;8.48;;;;;;;32.58;39.81;97056.81;5055370;28;20681;-85
2023/07/12 17:30:12;;;;;;;11.68;8.50;;;;;;;32.52;41.50;97072.94;5020462;28;20225;-82
2023/07/12 17:34:25;;;;;;;12.10;8.35;;;;;;;32.26;43.09;97072.88;5034344;28;20202;-85
2023/07/12 17:37:46;;;;;;;14.82;9.57;;;;;;;32.17;43.52;97074.91;5019906;28;20558;-83
2023/07/12 17:41:10;;;;;;;37.65;17.88;;;;;;;32.38;43.43;97076.59;5048768;28;20206;-82
2023/07/12 17:44:35;;;;;;;16.65;10.80;;;;;;;32.00;44.41;97079.03;5000108;28;20284;-81
2023/07/12 17:47:56;;;;;;;13.98;10.00;;;;;;;31.93;44.91;97070.97;5048369;28;20675;-84
2023/07/12 17:51:22;;;;;;;17.02;10.93;;;;;;;31.57;47.06;97073.09;5018779;28;20649;-84
2023/07/12 17:55:05;;;;;;;13.63;9.10;;;;;;;31.58;46.60;97068.56;5053122;28;20210;-82
2023/07/12 17:58:28;;;;;;;14.90;10.30;;;;;;;31.54;47.17;97080.69;5050358;28;20202;-84
2023/07/12 18:01:39;;;;;;;15.20;9.68;;;;;;;31.40;46.96;97085.19;5046906;28;20595;-86
2023/07/12 18:04:21;;;;;;;12.98;10.07;;;;;;;31.18;47.36;97062.19;5033825;28;20194;-83
2023/07/12 18:07:41;;;;;;;14.98;10.23;;;;;;;31.16;48.15;97080.28;5031714;28;20768;-87
2023/07/12 18:11:04;;;;;;;18.90;12.30;;;;;;;31.08;48.28;97070.56;5046993;28;20194;-85
2023/07/12 18:14:26;;;;;;;24.20;16.88;;;;;;;31.08;47.80;97067.88;5031838;28;20225;-84
2023/07/12 18:17:20;;;;;;;31.70;19.60;;;;;;;31.18;48.15;97102.31;5046195;28;20216;-87
2023/07/12 18:20:37;;;;;;;23.25;15.63;;;;;;;31.09;48.59;97107.00;5010489;28;20308;-81
2023/07/12 18:24:05;;;;;;;21.25;12.60;;;;;;;31.14;48.68;97117.13;4999510;28;20198;-86
2023/07/12 18:26:50;;;;;;;15.93;10.40;;;;;;;30.80;48.26;97090.28;5049033;28;20189;-86
2023/07/12 18:35:48;;;;;;;17.90;11.40;;;;;;;30.69;49.97;97125.59;5000471;28;20611;-87
2023/07/12 18:39:11;;;;;;;16.93;10.83;;;;;;;30.52;50.28;97139.22;4973084;28;20203;-86
2023/07/12 18:42:42;;;;;;;14.27;11.53;;;;;;;29.70;52.07;97137.03;5002914;28;20290;-86
2023/07/12 18:47:40;;;;;;;14.43;10.67;;;;;;;29.42;52.51;97115.53;4926569;29;20201;-85
2023/07/12 18:51:56;;;;;;;17.90;10.80;;;;;;;29.87;52.07;97154.53;4926590;29;20233;-86
2023/07/12 18:56:02;;;;;;;13.80;11.43;;;;;;;30.22;51.04;97155.53;4927224;29;20247;-87
2023/07/12 19:04:23;;;;;;;14.47;10.57;;;;;;;29.26;53.21;97157.59;4919223;29;20658;-87
2023/07/12 19:08:46;;;;;;;12.60;9.67;;;;;;;29.31;52.41;97166.69;4908250;29;20637;-85